Pagina principale
METAR-TAF:

METAR-TAF

Aeroporti :

Aeroporto di Figari Corsica del Sud

Figari, Francia

latitudine: 41-30N, longitudine: 009-06E, altezza: 26 m

Osservazione

Il bollettino è stato emesso 34 minuti fa, alle 11:30 UTC
Vento 20 kt da ovest con raffiche fino a 32 kt, variando fra sud-ovest e nord-ovest
Temperature 15°C
Umidità 48%
Pressione 1002 hPa
Visibilità 10 km o più
Nuvoloso ad un'altezza di 4900 ft
Nuvoloso ad un'altezza di 5600 ft

METAR: LFKF 131130Z AUTO 27020G32KT 230V310 9999 BKN049 BKN056 15/04 Q1002 NOSIG

Ora: 13:04 (12:04 UTC)

Previsione

Il bollettino è stato emesso 4 ore e 4 minuti fa, alle 08:00 UTC
Previsione valida dal 13 alle 09 UTC al 14 alle 09 UTC
Vento 20 kt da ovest con raffiche fino a 35 kt
Visibilità 10 km o più
nessuna nube inferiore a 1500 m e nessun cumulonembo
Evoluzione graduale
dal 13 alle 17 UTC al 13 alle 18 UTC
Vento 10 kt da ovest

TAF: LFKF 130800Z 1309/1409 28020G35KT CAVOK BECMG 1317/1318 28010KT

Osservazioni e previsioni meteorologiche di più di 4000 aeroporti (messaggi METAR e TAF).

Le stazioni disponibili sono rappresentate dai dischi gialli e rossi sulla carta.

Puntare il mouse per vedere il nome della stazione.

Clicca sopra per visualizzare le osservazioni e previsioni meteorologiche.

Per cambiare la mappa : fare clic sui pulsanti verdi con una croce nera per ingrandire, il pulsante verde con un trattino per diminuire, o sulla freccia verde per le mappe adiacenti.


METAR-TAF: